Time;durP1;ratioP1;P1;durP2;ratioP2;P2;SDS_P1;SDS_P2;PMS_P1;PMS_P2;Temp;Humidity;BMP_temperature;BMP_pressure;BME280_temperature;BME280_humidity;BME280_pressure;Samples;Min_cycle;Max_cycle;Signal;HPM_P1;HPM_P2
2023/07/27 00:00:20;;;;;;;3.63;2.40;;;10.10;99.90;;;;;;2065109;28;20269;-82
2023/07/27 00:01:21;;;;;;;2.80;2.30;;;10.10;99.90;;;;;;2072994;28;20241;-82
2023/07/27 00:02:25;;;;;;;3.50;2.13;;;10.00;99.90;;;;;;2065409;28;20254;-84
2023/07/27 00:03:26;;;;;;;4.38;2.70;;;10.00;99.90;;;;;;2073519;28;20240;-83
2023/07/27 00:04:27;;;;;;;3.07;2.60;;;10.00;99.90;;;;;;2070500;28;20249;-82
2023/07/27 00:05:28;;;;;;;2.83;2.40;;;10.10;99.90;;;;;;2069107;28;20225;-83
2023/07/27 00:06:28;;;;;;;2.70;2.47;;;10.00;99.90;;;;;;2085460;28;20243;-83
2023/07/27 00:07:29;;;;;;;2.97;2.67;;;10.00;99.90;;;;;;2077617;28;20318;-83
2023/07/27 00:08:30;;;;;;;5.30;3.17;;;10.00;99.90;;;;;;2069806;28;20316;-84
2023/07/27 00:09:30;;;;;;;3.00;2.50;;;10.10;99.90;;;;;;2069380;28;20318;-81
2023/07/27 00:10:31;;;;;;;3.33;2.60;;;10.10;99.90;;;;;;2061374;28;20229;-82
2023/07/27 00:11:33;;;;;;;2.53;2.28;;;10.20;99.90;;;;;;2073597;28;20686;-85
2023/07/27 00:12:34;;;;;;;4.83;2.30;;;10.20;99.90;;;;;;2083387;28;20232;-83
2023/07/27 00:13:34;;;;;;;2.83;2.23;;;10.10;99.90;;;;;;2078817;28;20373;-82
2023/07/27 00:14:35;;;;;;;4.33;2.53;;;10.00;99.90;;;;;;2070637;28;20237;-82
2023/07/27 00:15:36;;;;;;;3.53;2.40;;;10.00;99.90;;;;;;2057714;28;20234;-84
2023/07/27 00:16:37;;;;;;;3.00;2.53;;;10.00;99.90;;;;;;2065831;28;20779;-84
2023/07/27 00:17:38;;;;;;;4.30;2.57;;;10.00;99.90;;;;;;2072163;28;20283;-83
2023/07/27 00:18:39;;;;;;;4.50;2.70;;;9.90;99.90;;;;;;2071461;28;20244;-82
2023/07/27 00:19:40;;;;;;;2.53;2.27;;;9.90;99.90;;;;;;2073876;28;20372;-82
2023/07/27 00:20:40;;;;;;;2.50;2.07;;;9.90;99.90;;;;;;2065105;28;20263;-82
2023/07/27 00:21:41;;;;;;;3.90;2.10;;;9.90;99.90;;;;;;2073735;28;20327;-83
2023/07/27 00:22:42;;;;;;;2.80;2.10;;;9.80;99.90;;;;;;2065741;28;20878;-84
2023/07/27 00:23:42;;;;;;;4.70;2.50;;;9.80;99.90;;;;;;2066124;28;20225;-82
2023/07/27 00:24:43;;;;;;;3.53;2.73;;;9.90;99.90;;;;;;2078124;28;20264;-81
2023/07/27 00:25:44;;;;;;;2.33;2.13;;;10.00;99.90;;;;;;2090852;28;20236;-81
2023/07/27 00:26:44;;;;;;;2.73;2.13;;;10.00;99.90;;;;;;2087130;28;20233;-80
2023/07/27 00:27:45;;;;;;;3.03;2.67;;;9.90;99.90;;;;;;2073109;28;20245;-82
2023/07/27 00:28:46;;;;;;;3.03;2.43;;;10.00;99.90;;;;;;2059662;28;20306;-81
2023/07/27 00:29:46;;;;;;;3.20;2.67;;;10.10;99.90;;;;;;2054225;28;20263;-82
2023/07/27 00:30:52;;;;;;;2.27;2.00;;;10.10;99.90;;;;;;2060572;28;20226;-83
2023/07/27 00:31:53;;;;;;;3.75;2.63;;;10.10;99.90;;;;;;2062680;28;20250;-83
2023/07/27 00:32:54;;;;;;;4.03;2.47;;;10.10;99.90;;;;;;2065940;28;20240;-84
2023/07/27 00:33:54;;;;;;;4.10;2.40;;;10.00;99.90;;;;;;2069869;28;20234;-84
2023/07/27 00:34:55;;;;;;;3.10;2.23;;;10.10;99.90;;;;;;2078286;28;20229;-83
2023/07/27 00:35:58;;;;;;;4.93;2.43;;;10.10;99.90;;;;;;2075954;28;20241;-84
2023/07/27 00:36:58;;;;;;;2.95;2.40;;;10.30;99.90;;;;;;2073649;28;20229;-82
2023/07/27 00:37:59;;;;;;;3.23;2.37;;;10.20;99.90;;;;;;2066124;28;20198;-83
2023/07/27 00:39:00;;;;;;;2.50;2.22;;;10.20;99.90;;;;;;2065776;28;20570;-84
2023/07/27 00:40:01;;;;;;;2.50;2.30;;;10.20;99.90;;;;;;2066150;28;20199;-83
2023/07/27 00:41:01;;;;;;;2.43;2.23;;;10.20;99.90;;;;;;2057048;28;20234;-82
2023/07/27 00:42:02;;;;;;;2.90;2.47;;;10.10;99.90;;;;;;2061700;28;20193;-83
2023/07/27 00:43:03;;;;;;;4.73;3.00;;;10.20;99.90;;;;;;2063499;28;20196;-83
2023/07/27 00:44:03;;;;;;;2.47;2.27;;;10.20;99.90;;;;;;2057570;28;20198;-83
2023/07/27 00:45:05;;;;;;;3.37;2.37;;;10.30;99.90;;;;;;2061982;28;20201;-85
2023/07/27 00:46:06;;;;;;;2.70;2.03;;;10.10;99.90;;;;;;2069563;28;20209;-83
2023/07/27 00:47:07;;;;;;;2.40;2.20;;;10.00;99.90;;;;;;2069323;28;20670;-85
2023/07/27 00:48:11;;;;;;;3.20;2.23;;;10.00;99.90;;;;;;2074130;28;20219;-85
2023/07/27 00:49:12;;;;;;;3.55;2.63;;;10.00;99.90;;;;;;2068858;28;20197;-85
2023/07/27 00:50:13;;;;;;;2.50;2.30;;;9.90;99.90;;;;;;2069303;28;20592;-84
2023/07/27 00:51:14;;;;;;;2.90;2.50;;;9.90;99.90;;;;;;2056880;28;20210;-85
2023/07/27 00:52:15;;;;;;;2.23;2.03;;;10.00;99.90;;;;;;2065935;28;20181;-85
2023/07/27 00:53:16;;;;;;;3.38;2.53;;;10.00;99.90;;;;;;2065878;28;20189;-85
2023/07/27 00:54:17;;;;;;;4.78;2.47;;;10.00;99.90;;;;;;2064483;28;20270;-82
2023/07/27 00:55:18;;;;;;;4.68;2.40;;;9.90;99.90;;;;;;2060968;28;20717;-84
2023/07/27 00:56:19;;;;;;;2.80;2.50;;;9.90;99.90;;;;;;2073091;28;20276;-83
2023/07/27 00:57:21;;;;;;;3.17;2.47;;;9.90;99.90;;;;;;2072526;28;20232;-85
2023/07/27 00:58:22;;;;;;;3.88;2.70;;;9.80;99.90;;;;;;2072733;28;20247;-83
2023/07/27 00:59:23;;;;;;;3.35;2.38;;;9.90;99.90;;;;;;2072289;28;20224;-84
2023/07/27 01:00:25;;;;;;;2.53;2.33;;;9.90;99.90;;;;;;2056353;28;20366;-83
2023/07/27 01:01:26;;;;;;;3.42;2.72;;;10.00;99.90;;;;;;2064678;28;20299;-82
2023/07/27 01:02:26;;;;;;;4.37;2.50;;;10.00;99.90;;;;;;2066026;28;20310;-83
2023/07/27 01:03:28;;;;;;;3.17;2.60;;;10.10;99.90;;;;;;2064550;28;20229;-82
2023/07/27 01:04:28;;;;;;;2.90;2.50;;;10.00;99.90;;;;;;2059874;28;20285;-85
2023/07/27 01:05:29;;;;;;;2.97;2.30;;;10.00;99.90;;;;;;2051667;28;20273;-82
2023/07/27 01:06:30;;;;;;;3.53;2.20;;;10.10;99.90;;;;;;2059354;28;20230;-83
2023/07/27 01:07:30;;;;;;;3.07;2.40;;;10.10;99.90;;;;;;2083000;28;20239;-84
2023/07/27 01:08:32;;;;;;;5.17;2.87;;;10.00;99.90;;;;;;2080418;28;20258;-84
2023/07/27 01:09:32;;;;;;;2.75;2.38;;;10.00;99.90;;;;;;2059948;28;20310;-85
2023/07/27 01:10:51;;;;;;;3.47;2.30;;;10.00;99.90;;;;;;2054752;28;20227;-84
2023/07/27 01:12:02;;;;;;;3.15;2.55;;;10.00;99.90;;;;;;2076738;28;20588;-84
2023/07/27 01:13:23;;;;;;;3.67;2.42;;;9.90;99.90;;;;;;2068343;28;20239;-84
2023/07/27 01:14:41;;;;;;;3.67;2.70;;;9.90;99.90;;;;;;2061323;28;20253;-84
2023/07/27 01:15:49;;;;;;;5.75;2.97;;;9.90;99.90;;;;;;2066705;28;20259;-84
2023/07/27 01:17:07;;;;;;;2.85;2.55;;;9.80;99.90;;;;;;2072758;28;20235;-83
2023/07/27 01:18:20;;;;;;;4.15;2.90;;;9.70;99.90;;;;;;2061164;28;20225;-84
2023/07/27 01:19:31;;;;;;;3.50;2.45;;;9.70;99.90;;;;;;2066156;28;20295;-84
2023/07/27 01:20:50;;;;;;;3.20;2.53;;;9.70;99.90;;;;;;2063451;28;20249;-83
2023/07/27 01:22:14;;;;;;;2.60;2.25;;;9.70;99.90;;;;;;2067103;28;20238;-85
2023/07/27 01:24:19;;;;;;;2.58;2.30;;;9.60;99.90;;;;;;2069117;28;20246;-84
2023/07/27 01:25:40;;;;;;;3.28;2.58;;;9.60;99.90;;;;;;2073864;28;20236;-85
2023/07/27 01:27:20;;;;;;;4.53;2.65;;;9.60;99.90;;;;;;2071679;28;20301;-84
2023/07/27 01:29:01;;;;;;;3.28;2.00;;;9.60;99.90;;;;;;2065889;28;20703;-83
2023/07/27 01:30:22;;;;;;;4.57;2.67;;;9.70;99.90;;;;;;2078011;28;20220;-84
2023/07/27 01:31:28;;;;;;;3.90;2.20;;;9.70;99.90;;;;;;2087976;28;20316;-85
2023/07/27 01:32:34;;;;;;;3.83;2.30;;;9.70;99.90;;;;;;2068389;28;20347;-85
2023/07/27 01:33:41;;;;;;;4.38;2.20;;;9.70;99.90;;;;;;2069624;28;20665;-85
2023/07/27 01:34:46;;;;;;;2.47;2.28;;;9.80;99.90;;;;;;2072262;28;20359;-82
2023/07/27 01:36:08;;;;;;;3.13;2.30;;;9.80;99.90;;;;;;2069707;28;20242;-86
2023/07/27 01:37:13;;;;;;;3.97;2.33;;;9.80;99.90;;;;;;2061513;28;20229;-85
2023/07/27 01:38:14;;;;;;;2.42;2.22;;;9.70;99.90;;;;;;2051608;28;20676;-85
2023/07/27 01:39:18;;;;;;;2.30;2.10;;;9.70;99.90;;;;;;2068962;28;20749;-85
2023/07/27 01:40:21;;;;;;;2.90;2.35;;;9.70;99.90;;;;;;2073572;28;20238;-85
2023/07/27 01:41:23;;;;;;;9.70;3.17;;;9.80;99.90;;;;;;2070835;28;20215;-86
2023/07/27 01:42:24;;;;;;;4.43;2.80;;;9.80;99.90;;;;;;2066243;28;20222;-84
2023/07/27 01:43:28;;;;;;;5.32;2.90;;;9.90;99.90;;;;;;2079377;28;20613;-85
2023/07/27 01:44:31;;;;;;;3.63;2.97;;;9.90;99.90;;;;;;2084059;28;20242;-84
2023/07/27 01:45:32;;;;;;;4.72;3.08;;;10.00;99.90;;;;;;2075046;28;20498;-84
2023/07/27 01:46:33;;;;;;;4.70;3.40;;;10.00;99.90;;;;;;2075708;28;20320;-85
2023/07/27 01:47:33;;;;;;;4.90;3.38;;;10.00;99.90;;;;;;2071595;28;20252;-84
2023/07/27 01:48:39;;;;;;;4.63;2.57;;;10.00;99.90;;;;;;2067411;28;20234;-85
2023/07/27 01:49:42;;;;;;;3.05;2.50;;;10.00;99.90;;;;;;2068512;28;20293;-86
2023/07/27 01:50:44;;;;;;;4.10;2.53;;;10.00;99.90;;;;;;2069584;28;20735;-85
2023/07/27 01:51:46;;;;;;;5.05;2.67;;;10.00;99.90;;;;;;2068332;28;20241;-84
2023/07/27 01:52:48;;;;;;;5.07;2.75;;;10.10;99.90;;;;;;2068014;28;20732;-85
2023/07/27 01:53:50;;;;;;;3.42;2.47;;;10.10;99.90;;;;;;2076168;28;20326;-84
2023/07/27 01:54:53;;;;;;;4.60;2.60;;;10.10;99.90;;;;;;2059989;28;20230;-85
2023/07/27 01:55:55;;;;;;;4.30;2.45;;;10.00;99.90;;;;;;2065884;28;20234;-85
2023/07/27 01:56:57;;;;;;;3.38;2.63;;;10.00;99.90;;;;;;2060198;28;20728;-85
2023/07/27 01:58:02;;;;;;;3.85;2.92;;;10.00;99.90;;;;;;2055771;28;20237;-85
2023/07/27 01:59:05;;;;;;;3.42;2.95;;;10.00;99.90;;;;;;2063386;28;20254;-84
2023/07/27 02:00:08;;;;;;;4.90;3.00;;;10.00;99.90;;;;;;2059592;28;20226;-84
2023/07/27 02:01:09;;;;;;;2.80;2.28;;;10.00;99.90;;;;;;2067576;28;20210;-84
2023/07/27 02:02:12;;;;;;;3.88;2.50;;;10.00;99.90;;;;;;2069137;28;20186;-84
2023/07/27 02:03:13;;;;;;;4.45;2.30;;;9.90;99.90;;;;;;2072616;28;20566;-84
2023/07/27 02:04:13;;;;;;;2.87;2.37;;;9.90;99.90;;;;;;2072347;28;20215;-85
2023/07/27 02:05:15;;;;;;;5.47;2.63;;;9.90;99.90;;;;;;2071222;28;20193;-85
2023/07/27 02:06:17;;;;;;;4.70;2.88;;;10.00;99.90;;;;;;2080905;28;20191;-83
2023/07/27 02:07:18;;;;;;;5.35;2.83;;;9.90;99.90;;;;;;2079090;28;20198;-83
2023/07/27 02:08:18;;;;;;;4.22;2.50;;;10.00;99.90;;;;;;2063143;28;20238;-83
2023/07/27 02:09:19;;;;;;;3.67;2.97;;;10.10;99.90;;;;;;2063034;28;20248;-83
2023/07/27 02:10:21;;;;;;;5.30;2.50;;;10.10;99.90;;;;;;2066570;28;20330;-85
2023/07/27 02:11:23;;;;;;;4.38;3.10;;;10.20;99.90;;;;;;2072462;28;20252;-85
2023/07/27 02:12:30;;;;;;;4.53;2.40;;;10.20;99.90;;;;;;2079763;28;20232;-85
2023/07/27 02:13:37;;;;;;;3.95;2.40;;;10.20;99.90;;;;;;2072513;28;20350;-85
2023/07/27 02:14:49;;;;;;;5.28;3.03;;;10.10;99.90;;;;;;2070030;28;20640;-85
2023/07/27 02:16:24;;;;;;;3.75;2.63;;;10.10;99.90;;;;;;2071814;28;20715;-84
2023/07/27 02:17:39;;;;;;;3.78;2.67;;;10.10;99.90;;;;;;2063251;28;20234;-84
2023/07/27 02:18:41;;;;;;;2.60;2.30;;;10.00;99.90;;;;;;2059377;28;20241;-85
2023/07/27 02:19:44;;;;;;;2.90;2.50;;;10.10;99.90;;;;;;2072240;28;20227;-85
2023/07/27 02:20:49;;;;;;;3.78;2.53;;;10.20;99.90;;;;;;2064122;28;20315;-84
2023/07/27 02:21:50;;;;;;;3.65;2.83;;;10.20;99.90;;;;;;2072754;28;20267;-83
2023/07/27 02:22:52;;;;;;;3.40;2.80;;;10.30;99.90;;;;;;2077275;28;20224;-82
2023/07/27 02:23:54;;;;;;;4.75;2.78;;;10.40;99.90;;;;;;2069922;28;20224;-82
2023/07/27 02:24:54;;;;;;;3.20;2.20;;;10.40;99.90;;;;;;2065045;28;20230;-84
2023/07/27 02:25:55;;;;;;;4.97;2.53;;;10.40;99.90;;;;;;2071517;28;20228;-83
2023/07/27 02:26:56;;;;;;;4.60;2.50;;;10.50;99.90;;;;;;2074650;28;20295;-85
2023/07/27 02:27:57;;;;;;;5.20;2.55;;;10.50;99.90;;;;;;2073097;28;20220;-84
2023/07/27 02:28:58;;;;;;;3.13;2.53;;;10.50;99.90;;;;;;2057196;28;20226;-84
2023/07/27 02:30:01;;;;;;;3.20;2.65;;;10.40;99.90;;;;;;2054996;28;20235;-84
2023/07/27 02:31:01;;;;;;;3.85;2.70;;;10.30;99.90;;;;;;2072352;28;20209;-84
2023/07/27 02:32:02;;;;;;;3.00;2.50;;;10.30;99.90;;;;;;2084879;28;20189;-84
2023/07/27 02:33:04;;;;;;;5.67;2.83;;;10.20;99.90;;;;;;2067777;28;20198;-85
2023/07/27 02:34:05;;;;;;;2.88;2.58;;;10.20;99.90;;;;;;2060788;28;20201;-84
2023/07/27 02:35:06;;;;;;;2.67;2.38;;;10.30;99.90;;;;;;2073211;28;20193;-83
2023/07/27 02:36:07;;;;;;;3.13;2.40;;;10.40;99.90;;;;;;2060347;28;20201;-83
2023/07/27 02:37:08;;;;;;;3.67;2.40;;;10.50;99.90;;;;;;2060713;28;20193;-84
2023/07/27 02:38:08;;;;;;;4.53;2.63;;;10.50;99.90;;;;;;2067700;28;20296;-84
2023/07/27 02:39:09;;;;;;;2.63;2.30;;;10.60;99.90;;;;;;2055576;28;20189;-86
2023/07/27 02:40:10;;;;;;;4.13;2.70;;;10.70;99.90;;;;;;2052507;28;20186;-85
2023/07/27 02:41:11;;;;;;;2.80;2.40;;;10.70;99.90;;;;;;2055669;28;20217;-83
2023/07/27 02:42:11;;;;;;;4.13;2.43;;;10.70;99.90;;;;;;2064100;28;20189;-84
2023/07/27 02:43:12;;;;;;;3.50;2.60;;;10.70;99.90;;;;;;2064376;28;20268;-84
2023/07/27 02:44:13;;;;;;;3.87;2.77;;;10.70;99.90;;;;;;2068322;28;20255;-84
2023/07/27 02:45:13;;;;;;;3.83;2.27;;;10.80;99.90;;;;;;2076567;28;20200;-84
2023/07/27 02:46:14;;;;;;;3.53;2.40;;;10.80;99.90;;;;;;2080126;28;20185;-85
2023/07/27 02:47:15;;;;;;;4.07;3.13;;;10.80;99.90;;;;;;2060790;28;20201;-82
2023/07/27 02:48:15;;;;;;;4.93;2.63;;;10.90;99.90;;;;;;2071591;28;20622;-83
2023/07/27 02:49:16;;;;;;;3.00;2.43;;;10.90;99.90;;;;;;2076295;28;20189;-85
2023/07/27 02:50:17;;;;;;;2.87;2.33;;;10.80;99.90;;;;;;2059771;28;20202;-83
2023/07/27 02:51:17;;;;;;;2.50;2.10;;;10.90;99.90;;;;;;2067600;28;20236;-85
2023/07/27 02:52:18;;;;;;;3.53;2.40;;;10.80;99.90;;;;;;2060876;28;20257;-84
2023/07/27 02:53:19;;;;;;;3.00;2.50;;;10.90;99.90;;;;;;2063682;28;20727;-85
2023/07/27 02:54:19;;;;;;;3.70;2.80;;;10.90;99.90;;;;;;2064019;28;20234;-84
2023/07/27 02:55:20;;;;;;;4.53;2.83;;;10.70;99.90;;;;;;2068080;28;20237;-83
2023/07/27 02:56:21;;;;;;;3.13;2.50;;;10.80;99.90;;;;;;2067356;28;20962;-83
2023/07/27 02:57:21;;;;;;;3.80;2.80;;;10.80;99.90;;;;;;2055473;28;20242;-83
2023/07/27 02:58:23;;;;;;;3.72;2.58;;;10.90;99.90;;;;;;2063206;28;20244;-85
2023/07/27 02:59:23;;;;;;;3.45;2.58;;;10.90;99.90;;;;;;2067541;28;20225;-84
2023/07/27 03:00:24;;;;;;;4.17;2.90;;;10.90;99.90;;;;;;2059591;28;20242;-84
2023/07/27 03:01:25;;;;;;;4.87;3.00;;;10.90;99.90;;;;;;2059994;28;21008;-85
2023/07/27 03:02:25;;;;;;;3.70;3.20;;;10.90;99.90;;;;;;2076543;28;20237;-84
2023/07/27 03:03:26;;;;;;;3.80;2.90;;;10.90;99.90;;;;;;2076000;28;20295;-85
2023/07/27 03:04:27;;;;;;;4.03;3.13;;;10.80;99.90;;;;;;2078148;28;20312;-84
2023/07/27 03:05:28;;;;;;;3.97;2.77;;;10.80;99.90;;;;;;2072723;28;20253;-84
2023/07/27 03:06:28;;;;;;;5.43;3.20;;;10.80;99.90;;;;;;2071349;28;20236;-85
2023/07/27 03:07:29;;;;;;;3.70;2.90;;;10.90;99.90;;;;;;2063423;28;20241;-83
2023/07/27 03:08:31;;;;;;;3.70;2.80;;;10.90;99.90;;;;;;2059642;28;21075;-85
2023/07/27 03:09:33;;;;;;;5.18;2.72;;;10.90;99.90;;;;;;2071325;28;20236;-84
2023/07/27 03:10:36;;;;;;;5.35;2.45;;;10.80;99.90;;;;;;2060240;28;20666;-83
2023/07/27 03:11:37;;;;;;;3.20;2.47;;;10.80;99.90;;;;;;2063400;28;20314;-84
2023/07/27 03:12:38;;;;;;;3.20;1.98;;;10.80;99.90;;;;;;2057941;28;20233;-84
2023/07/27 03:13:39;;;;;;;3.50;2.00;;;10.80;99.90;;;;;;2066692;28;20237;-84
2023/07/27 03:14:39;;;;;;;2.60;2.27;;;10.80;99.90;;;;;;2071215;28;20308;-84
2023/07/27 03:15:40;;;;;;;2.43;2.07;;;10.80;99.90;;;;;;2063409;28;20770;-84
2023/07/27 03:16:41;;;;;;;4.15;2.10;;;10.90;99.90;;;;;;2054984;28;20331;-85
2023/07/27 03:17:42;;;;;;;3.40;2.27;;;10.80;99.90;;;;;;2060275;28;20262;-83
2023/07/27 03:18:42;;;;;;;2.97;2.23;;;11.00;99.90;;;;;;2067609;28;20740;-85
2023/07/27 03:19:43;;;;;;;2.20;1.93;;;10.90;99.90;;;;;;2061596;28;20300;-85
2023/07/27 03:20:44;;;;;;;2.53;2.30;;;10.90;99.90;;;;;;2062548;28;20245;-84
2023/07/27 03:21:45;;;;;;;2.80;2.13;;;10.90;99.90;;;;;;2060528;28;20229;-85
2023/07/27 03:22:46;;;;;;;4.23;2.43;;;10.70;99.90;;;;;;2063067;28;20311;-83
2023/07/27 03:23:48;;;;;;;3.15;2.50;;;10.80;99.90;;;;;;2071092;28;20292;-84
2023/07/27 03:24:49;;;;;;;2.67;2.45;;;10.80;99.90;;;;;;2067812;28;20253;-85
2023/07/27 03:25:50;;;;;;;3.70;2.60;;;10.80;99.90;;;;;;2075025;28;20630;-84
2023/07/27 03:26:51;;;;;;;3.73;2.50;;;10.80;99.90;;;;;;2059182;28;20240;-85
2023/07/27 03:27:53;;;;;;;3.23;2.47;;;10.90;99.90;;;;;;2067315;28;20711;-84
2023/07/27 03:28:53;;;;;;;3.25;2.38;;;10.90;99.90;;;;;;2061585;28;20801;-83
2023/07/27 03:29:56;;;;;;;3.50;2.60;;;11.00;99.90;;;;;;2062803;28;20272;-84
2023/07/27 03:30:56;;;;;;;3.17;1.95;;;10.90;99.90;;;;;;2063556;28;20214;-83
2023/07/27 03:31:57;;;;;;;2.80;2.33;;;10.90;99.90;;;;;;2059611;28;20225;-84
2023/07/27 03:32:58;;;;;;;3.77;2.27;;;10.90;99.90;;;;;;2059875;28;20227;-83
2023/07/27 03:33:58;;;;;;;3.40;2.30;;;10.90;99.90;;;;;;2061428;28;20222;-84
2023/07/27 03:34:59;;;;;;;2.27;2.07;;;11.00;99.90;;;;;;2053926;28;20202;-84
2023/07/27 03:36:00;;;;;;;2.47;2.07;;;11.00;99.90;;;;;;2069704;28;20256;-82
2023/07/27 03:37:00;;;;;;;2.70;2.20;;;11.10;99.90;;;;;;2070108;28;20195;-84
2023/07/27 03:38:02;;;;;;;3.63;2.17;;;11.10;99.90;;;;;;2067181;28;20184;-84
2023/07/27 03:39:03;;;;;;;2.47;1.95;;;11.00;99.90;;;;;;2067458;28;20915;-84
2023/07/27 03:40:04;;;;;;;3.07;1.93;;;11.00;99.90;;;;;;2070787;28;20194;-83
2023/07/27 03:41:05;;;;;;;2.97;2.50;;;10.90;99.90;;;;;;2062416;28;20704;-84
2023/07/27 03:42:07;;;;;;;3.27;2.73;;;10.80;99.90;;;;;;2062592;28;20185;-84
2023/07/27 03:43:08;;;;;;;4.28;2.10;;;10.90;99.90;;;;;;2063297;28;20190;-84
2023/07/27 03:44:11;;;;;;;3.38;2.22;;;10.90;99.90;;;;;;2054272;28;20195;-84
2023/07/27 03:45:15;;;;;;;4.70;2.72;;;10.80;99.90;;;;;;2054568;28;20183;-84
2023/07/27 03:46:16;;;;;;;2.90;2.40;;;10.90;99.90;;;;;;2055749;28;20242;-82
2023/07/27 03:47:17;;;;;;;2.67;2.10;;;10.80;99.90;;;;;;2062435;28;20194;-83
2023/07/27 03:48:17;;;;;;;2.80;2.10;;;10.90;99.90;;;;;;2071461;28;20691;-84
2023/07/27 03:49:18;;;;;;;2.43;2.20;;;10.90;99.90;;;;;;2060801;28;20266;-83
2023/07/27 03:50:19;;;;;;;3.07;2.20;;;10.90;99.90;;;;;;2059522;28;20229;-83
2023/07/27 03:51:19;;;;;;;2.27;2.07;;;10.90;99.90;;;;;;2069044;28;20457;-83
2023/07/27 03:52:20;;;;;;;4.00;2.27;;;10.90;99.90;;;;;;2062149;28;20253;-82
2023/07/27 03:53:21;;;;;;;2.10;1.80;;;10.80;99.90;;;;;;2070823;28;20330;-84
2023/07/27 03:54:21;;;;;;;4.87;2.13;;;10.80;99.90;;;;;;2067981;28;20725;-83
2023/07/27 03:55:22;;;;;;;3.27;2.07;;;10.80;99.90;;;;;;2067212;28;20226;-83
2023/07/27 03:56:24;;;;;;;2.97;2.27;;;10.90;99.90;;;;;;2067806;28;20240;-82
2023/07/27 03:57:25;;;;;;;3.03;2.33;;;10.90;99.90;;;;;;2067367;28;20233;-82
2023/07/27 03:58:25;;;;;;;2.93;2.57;;;11.00;99.90;;;;;;2071432;28;20364;-83
2023/07/27 03:59:26;;;;;;;2.40;2.20;;;11.00;99.90;;;;;;2071735;28;20243;-84
2023/07/27 04:00:26;;;;;;;3.73;2.47;;;11.00;99.90;;;;;;2074142;28;20263;-84
2023/07/27 04:01:27;;;;;;;3.00;2.20;;;11.00;99.90;;;;;;2060163;28;20234;-83
2023/07/27 04:02:28;;;;;;;3.77;2.13;;;11.10;99.90;;;;;;2069168;28;20624;-83
2023/07/27 04:03:29;;;;;;;3.53;2.10;;;11.10;99.90;;;;;;2060841;28;20242;-83
2023/07/27 04:04:29;;;;;;;4.07;2.30;;;11.10;99.90;;;;;;2052408;28;20569;-83
2023/07/27 04:05:31;;;;;;;3.37;2.30;;;11.10;99.90;;;;;;2052781;28;20311;-82
2023/07/27 04:06:32;;;;;;;3.10;2.17;;;11.10;99.90;;;;;;2071368;28;20233;-83
2023/07/27 04:07:32;;;;;;;2.03;1.83;;;11.20;99.90;;;;;;2078336;28;20307;-83
2023/07/27 04:08:33;;;;;;;4.60;1.97;;;11.20;99.90;;;;;;2071492;28;20241;-85
2023/07/27 04:09:34;;;;;;;2.67;2.43;;;11.20;99.90;;;;;;2062127;28;20298;-84
2023/07/27 04:10:35;;;;;;;2.33;1.70;;;11.20;99.90;;;;;;2050911;28;20736;-85
2023/07/27 04:11:36;;;;;;;2.73;2.10;;;11.30;99.90;;;;;;2063128;28;20250;-83
2023/07/27 04:12:36;;;;;;;3.13;1.90;;;11.40;99.90;;;;;;2072147;28;20225;-84
2023/07/27 04:13:40;;;;;;;2.53;2.33;;;11.40;99.90;;;;;;2072193;28;20225;-83
2023/07/27 04:14:41;;;;;;;2.78;2.40;;;11.30;99.90;;;;;;2080120;28;20265;-84
2023/07/27 04:15:42;;;;;;;2.70;2.13;;;11.30;99.90;;;;;;2071103;28;20237;-84
2023/07/27 04:16:43;;;;;;;2.17;1.88;;;11.30;99.90;;;;;;2070591;28;20233;-84
2023/07/27 04:17:44;;;;;;;3.50;2.70;;;11.30;99.90;;;;;;2079358;28;20229;-84
2023/07/27 04:18:44;;;;;;;3.53;2.20;;;11.40;99.90;;;;;;2089756;28;20248;-83
2023/07/27 04:19:45;;;;;;;3.50;2.10;;;11.40;99.90;;;;;;2080337;28;20237;-82
2023/07/27 04:20:45;;;;;;;3.30;2.20;;;11.20;99.90;;;;;;2070602;28;20338;-83
2023/07/27 04:21:46;;;;;;;3.30;2.50;;;11.30;99.90;;;;;;2062199;28;20281;-84
2023/07/27 04:22:47;;;;;;;2.87;2.10;;;11.30;99.90;;;;;;2069349;28;20305;-84
2023/07/27 04:23:48;;;;;;;2.90;2.20;;;11.30;99.90;;;;;;2066731;28;20352;-84
2023/07/27 04:24:50;;;;;;;2.42;2.00;;;11.40;99.90;;;;;;2065791;28;20229;-82
2023/07/27 04:25:50;;;;;;;2.35;1.92;;;11.50;99.90;;;;;;2065985;28;20301;-82
2023/07/27 04:26:51;;;;;;;2.90;2.10;;;11.60;99.90;;;;;;2064847;28;20214;-83
2023/07/27 04:27:52;;;;;;;4.03;2.30;;;11.60;99.90;;;;;;2070860;28;20230;-84
2023/07/27 04:28:53;;;;;;;2.30;1.87;;;11.60;99.90;;;;;;2072353;28;20292;-82
2023/07/27 04:29:54;;;;;;;2.70;2.23;;;11.60;99.90;;;;;;2055131;28;20298;-84
2023/07/27 04:30:55;;;;;;;2.53;2.08;;;11.60;99.90;;;;;;2055812;28;20238;-84
2023/07/27 04:31:55;;;;;;;3.47;2.27;;;11.60;99.90;;;;;;2057247;28;20222;-83
2023/07/27 04:32:56;;;;;;;2.87;2.20;;;11.60;99.90;;;;;;2070629;28;20210;-83
2023/07/27 04:33:57;;;;;;;3.23;2.10;;;11.60;99.90;;;;;;2075268;28;20580;-83
2023/07/27 04:34:57;;;;;;;2.53;2.20;;;11.50;99.90;;;;;;2060715;28;20268;-84
2023/07/27 04:36:00;;;;;;;2.87;2.20;;;11.60;99.90;;;;;;2061349;28;20225;-84
2023/07/27 04:37:02;;;;;;;2.45;2.05;;;11.60;99.90;;;;;;2065742;28;20687;-83
2023/07/27 04:38:03;;;;;;;2.95;2.30;;;11.60;99.90;;;;;;2064328;28;20220;-82
2023/07/27 04:39:04;;;;;;;2.13;1.80;;;11.60;99.90;;;;;;2065013;28;20987;-83
2023/07/27 04:40:06;;;;;;;2.80;1.80;;;11.70;99.90;;;;;;2061734;28;20190;-84
2023/07/27 04:41:06;;;;;;;3.30;2.10;;;11.80;99.90;;;;;;2064659;28;20680;-84
2023/07/27 04:42:07;;;;;;;2.73;2.23;;;11.80;99.90;;;;;;2073040;28;20213;-84
2023/07/27 04:43:08;;;;;;;3.10;1.80;;;11.70;99.90;;;;;;2079561;28;20221;-83
2023/07/27 04:44:09;;;;;;;3.77;2.30;;;11.80;99.90;;;;;;2078333;28;20689;-83
2023/07/27 04:45:10;;;;;;;2.03;1.80;;;11.80;99.90;;;;;;2063891;28;20182;-83
2023/07/27 04:46:11;;;;;;;3.83;2.20;;;11.80;99.90;;;;;;2070556;28;20529;-84
2023/07/27 04:47:11;;;;;;;2.90;2.40;;;11.80;99.90;;;;;;2070573;28;20637;-84
2023/07/27 04:48:12;;;;;;;3.53;1.93;;;11.80;99.90;;;;;;2073373;28;20558;-83
2023/07/27 04:49:13;;;;;;;2.83;1.97;;;11.80;99.90;;;;;;2080116;28;20185;-83
2023/07/27 04:50:13;;;;;;;2.87;2.10;;;11.90;99.90;;;;;;2077512;28;20629;-84
2023/07/27 04:51:14;;;;;;;2.07;1.83;;;11.90;99.90;;;;;;2071723;28;20236;-83
2023/07/27 04:52:15;;;;;;;3.13;2.10;;;12.00;99.90;;;;;;2062109;28;20641;-84
2023/07/27 04:53:15;;;;;;;3.30;2.20;;;12.10;99.90;;;;;;2053380;28;20203;-83
2023/07/27 04:54:16;;;;;;;4.53;2.37;;;12.20;99.90;;;;;;2063322;28;20226;-83
2023/07/27 04:55:16;;;;;;;2.67;2.13;;;12.20;99.90;;;;;;2064095;28;20564;-83
2023/07/27 04:56:17;;;;;;;3.97;2.10;;;12.30;99.90;;;;;;2057668;28;20179;-83
2023/07/27 04:57:18;;;;;;;2.23;1.97;;;12.30;99.90;;;;;;2060225;28;20279;-84
2023/07/27 04:58:19;;;;;;;4.20;2.07;;;12.20;99.90;;;;;;2054579;28;20242;-84
2023/07/27 04:59:19;;;;;;;3.07;2.23;;;12.30;99.90;;;;;;2055822;28;20229;-83
2023/07/27 05:00:20;;;;;;;3.50;1.73;;;12.40;99.90;;;;;;2064759;28;20854;-84
2023/07/27 05:01:21;;;;;;;2.70;2.03;;;12.40;99.90;;;;;;2063054;28;20245;-82
2023/07/27 05:02:22;;;;;;;2.73;2.33;;;12.50;99.90;;;;;;2070152;28;20240;-82
2023/07/27 05:03:23;;;;;;;2.10;1.67;;;12.50;99.90;;;;;;2081297;28;20296;-83
2023/07/27 05:04:23;;;;;;;2.13;1.93;;;12.60;99.90;;;;;;2067334;28;20281;-81
2023/07/27 05:05:24;;;;;;;1.90;1.70;;;12.80;99.90;;;;;;2066273;28;20472;-83
2023/07/27 05:06:25;;;;;;;2.60;2.00;;;12.60;99.90;;;;;;2067831;28;20249;-81
2023/07/27 05:07:25;;;;;;;2.20;1.87;;;12.60;99.90;;;;;;2065817;28;20640;-83
2023/07/27 05:08:26;;;;;;;2.67;2.37;;;12.60;99.90;;;;;;2065920;28;20234;-83
2023/07/27 05:09:27;;;;;;;3.13;2.00;;;12.60;99.90;;;;;;2064585;28;20232;-83
2023/07/27 05:10:27;;;;;;;2.10;1.90;;;12.60;99.90;;;;;;2073026;28;20316;-82
2023/07/27 05:11:29;;;;;;;2.70;2.40;;;12.50;99.90;;;;;;2066708;28;20227;-84
2023/07/27 05:12:32;;;;;;;2.70;2.42;;;12.50;99.90;;;;;;2063909;28;20234;-84
2023/07/27 05:13:33;;;;;;;2.65;2.00;;;12.40;99.90;;;;;;2066459;28;20288;-84
2023/07/27 05:14:34;;;;;;;2.58;2.22;;;12.30;99.90;;;;;;2088383;28;20228;-82
2023/07/27 05:15:37;;;;;;;2.17;1.83;;;12.30;99.90;;;;;;2074945;28;20230;-84
2023/07/27 05:16:38;;;;;;;2.95;2.10;;;12.30;99.90;;;;;;2071468;28;20225;-82
2023/07/27 05:17:39;;;;;;;2.87;2.20;;;12.30;99.90;;;;;;2075783;28;20244;-82
2023/07/27 05:18:40;;;;;;;2.73;1.87;;;12.30;99.90;;;;;;2072430;28;20265;-83
2023/07/27 05:19:40;;;;;;;2.67;2.00;;;12.30;99.90;;;;;;2069176;28;20244;-84
2023/07/27 05:20:42;;;;;;;3.20;1.97;;;12.40;99.90;;;;;;2070382;28;20252;-84
2023/07/27 05:21:43;;;;;;;4.70;2.78;;;12.50;99.90;;;;;;2066035;28;20234;-84
2023/07/27 05:22:43;;;;;;;2.60;2.20;;;12.60;99.90;;;;;;2060122;28;20533;-84
2023/07/27 05:23:44;;;;;;;3.27;2.10;;;12.70;99.90;;;;;;2065596;28;20237;-84
2023/07/27 05:24:45;;;;;;;3.07;1.90;;;12.80;99.90;;;;;;2061930;28;20232;-84
2023/07/27 05:25:47;;;;;;;2.00;1.80;;;12.80;99.90;;;;;;2057880;28;20296;-82